BDA228 VOGO-VOML
Flight info
| Callsign | BDA228 |
|---|---|
| Flight time | 0h 34m |
| Altitude | 21000 |
| Route | KADMI W15 KANTI |
| Aircraft | B738/M-SDE2E3FGHIRWXY/LB1 |
Departure
| Time | 2026-05-04 17:45 |
|---|---|
| Airport | Goa Dabolim International Airport (VOGO) |
Arrival
| Time | 2026-05-04 18:19 |
|---|---|
| Airport | Mangaluru International Airport (VOML) |
| Time | Latitude | Longitude | Altitude | Speed | Heading |
|---|---|---|---|---|---|
| 2026-05-04 17:36 | 15.38376 | 73.83886 | 174 ft | 0 kts | 258° |
| 2026-05-04 17:37 | 15.38376 | 73.83885 | 174 ft | 1 kts | 258° |
| 2026-05-04 17:38 | 15.38370 | 73.83856 | 173 ft | 7 kts | 256° |
| 2026-05-04 17:38 | 15.38333 | 73.83825 | 172 ft | 7 kts | 193° |
| 2026-05-04 17:38 | 15.38286 | 73.83832 | 173 ft | 7 kts | 166° |
| 2026-05-04 17:38 | 15.38239 | 73.83843 | 173 ft | 7 kts | 169° |
| 2026-05-04 17:39 | 15.38203 | 73.83910 | 174 ft | 9 kts | 71° |
| 2026-05-04 17:39 | 15.38245 | 73.84056 | 176 ft | 23 kts | 73° |
| 2026-05-04 17:39 | 15.38283 | 73.84215 | 180 ft | 22 kts | 78° |
| 2026-05-04 17:40 | 15.38310 | 73.84372 | 183 ft | 22 kts | 80° |
| 2026-05-04 17:40 | 15.38335 | 73.84523 | 185 ft | 21 kts | 81° |
| 2026-05-04 17:40 | 15.38363 | 73.84661 | 188 ft | 11 kts | 91° |
| 2026-05-04 17:40 | 15.38351 | 73.84674 | 188 ft | 0 kts | 141° |
| 2026-05-04 17:44 | 15.38345 | 73.84688 | 193 ft | 2 kts | 83° |
| 2026-05-04 17:44 | 15.38358 | 73.84692 | 193 ft | 2 kts | 353° |
| 2026-05-04 17:44 | 15.38363 | 73.84677 | 187 ft | 2 kts | 263° |
| 2026-05-04 17:44 | 15.38309 | 73.84436 | 190 ft | 84 kts | 257° |
| 2026-05-04 17:45 | 15.38134 | 73.83517 | 254 ft | 166 kts | 260° |
| 2026-05-04 17:45 | 15.37877 | 73.82198 | 1026 ft | 195 kts | 260° |
| 2026-05-04 17:45 | 15.37397 | 73.80913 | 2376 ft | 199 kts | 232° |
| 2026-05-04 17:45 | 15.36147 | 73.80130 | 3084 ft | 231 kts | 194° |
| 2026-05-04 17:46 | 15.34466 | 73.80312 | 3485 ft | 254 kts | 159° |
| 2026-05-04 17:46 | 15.32869 | 73.81084 | 3887 ft | 263 kts | 154° |
| 2026-05-04 17:46 | 15.31164 | 73.81960 | 4093 ft | 280 kts | 154° |
| 2026-05-04 17:46 | 15.29378 | 73.82871 | 4588 ft | 290 kts | 154° |
| 2026-05-04 17:47 | 15.27533 | 73.83792 | 5076 ft | 299 kts | 155° |
| 2026-05-04 17:47 | 15.25623 | 73.84726 | 5573 ft | 307 kts | 155° |
| 2026-05-04 17:47 | 15.23655 | 73.85672 | 6071 ft | 315 kts | 155° |
| 2026-05-04 17:47 | 15.21641 | 73.86630 | 6552 ft | 319 kts | 155° |
| 2026-05-04 17:48 | 15.19632 | 73.87576 | 7010 ft | 315 kts | 155° |
| 2026-05-04 17:48 | 15.17666 | 73.88497 | 7469 ft | 313 kts | 155° |
| 2026-05-04 17:48 | 15.15678 | 73.89425 | 7962 ft | 312 kts | 155° |
| 2026-05-04 17:48 | 15.13701 | 73.90346 | 8433 ft | 311 kts | 156° |
| 2026-05-04 17:49 | 15.11729 | 73.91262 | 8943 ft | 310 kts | 156° |
| 2026-05-04 17:49 | 15.09768 | 73.92173 | 9441 ft | 308 kts | 156° |
| 2026-05-04 17:49 | 15.07811 | 73.93082 | 9929 ft | 307 kts | 156° |
| 2026-05-04 17:49 | 15.05846 | 73.93994 | 10399 ft | 313 kts | 156° |
| 2026-05-04 17:50 | 15.03837 | 73.94926 | 10873 ft | 319 kts | 156° |
| 2026-05-04 17:50 | 15.01820 | 73.95862 | 11347 ft | 326 kts | 156° |
| 2026-05-04 17:50 | 14.99708 | 73.96841 | 11841 ft | 337 kts | 156° |
| 2026-05-04 17:50 | 14.97532 | 73.97849 | 12345 ft | 347 kts | 155° |
| 2026-05-04 17:51 | 14.95298 | 73.98885 | 12854 ft | 357 kts | 155° |
| 2026-05-04 17:51 | 14.93006 | 73.99947 | 13362 ft | 366 kts | 155° |
| 2026-05-04 17:51 | 14.90655 | 74.01036 | 13858 ft | 373 kts | 155° |
| 2026-05-04 17:51 | 14.88274 | 74.02139 | 14315 ft | 375 kts | 155° |
| 2026-05-04 17:52 | 14.85893 | 74.03242 | 14775 ft | 374 kts | 155° |
| 2026-05-04 17:52 | 14.83547 | 74.04327 | 15228 ft | 374 kts | 155° |
| 2026-05-04 17:52 | 14.81169 | 74.05428 | 15713 ft | 374 kts | 155° |
| 2026-05-04 17:52 | 14.78787 | 74.06530 | 16200 ft | 375 kts | 155° |
| 2026-05-04 17:53 | 14.76394 | 74.07637 | 16697 ft | 377 kts | 155° |
| 2026-05-04 17:53 | 14.74801 | 74.08374 | 17028 ft | 378 kts | 155° |
| 2026-05-04 17:53 | 14.71610 | 74.09850 | 17701 ft | 381 kts | 155° |
| 2026-05-04 17:53 | 14.69177 | 74.10974 | 18218 ft | 385 kts | 155° |
| 2026-05-04 17:54 | 14.67515 | 74.11743 | 18519 ft | 389 kts | 155° |
| 2026-05-04 17:54 | 14.65028 | 74.12892 | 18966 ft | 394 kts | 156° |
| 2026-05-04 17:54 | 14.61701 | 74.14428 | 19564 ft | 396 kts | 156° |
| 2026-05-04 17:54 | 14.60024 | 74.15179 | 19868 ft | 397 kts | 158° |
| 2026-05-04 17:55 | 14.57455 | 74.16224 | 20333 ft | 398 kts | 160° |
| 2026-05-04 17:55 | 14.54849 | 74.17226 | 20786 ft | 399 kts | 160° |
| 2026-05-04 17:55 | 14.52205 | 74.18230 | 20868 ft | 411 kts | 160° |
| 2026-05-04 17:55 | 14.49503 | 74.19258 | 20878 ft | 416 kts | 160° |
| 2026-05-04 17:56 | 14.46783 | 74.20302 | 20880 ft | 415 kts | 160° |
| 2026-05-04 17:56 | 14.44081 | 74.21347 | 20873 ft | 414 kts | 160° |
| 2026-05-04 17:56 | 14.41385 | 74.22394 | 20873 ft | 412 kts | 160° |
| 2026-05-04 17:56 | 14.38704 | 74.23437 | 20878 ft | 411 kts | 160° |
| 2026-05-04 17:57 | 14.36058 | 74.24467 | 20879 ft | 411 kts | 160° |
| 2026-05-04 17:57 | 14.33370 | 74.25513 | 20879 ft | 412 kts | 160° |
| 2026-05-04 17:57 | 14.30682 | 74.26558 | 20881 ft | 413 kts | 160° |
| 2026-05-04 17:57 | 14.27986 | 74.27606 | 20882 ft | 413 kts | 160° |
| 2026-05-04 17:58 | 14.25287 | 74.28655 | 20884 ft | 414 kts | 160° |
| 2026-05-04 17:58 | 14.22583 | 74.29702 | 20878 ft | 414 kts | 160° |
| 2026-05-04 17:58 | 14.19892 | 74.30659 | 20876 ft | 415 kts | 162° |
| 2026-05-04 17:58 | 14.17145 | 74.31561 | 20879 ft | 415 kts | 163° |
| 2026-05-04 17:59 | 14.14382 | 74.32439 | 20878 ft | 415 kts | 163° |
| 2026-05-04 17:59 | 14.11620 | 74.33313 | 20874 ft | 415 kts | 163° |
| 2026-05-04 17:59 | 14.06075 | 74.35008 | 20878 ft | 414 kts | 164° |
| 2026-05-04 18:00 | 14.03310 | 74.35834 | 20878 ft | 414 kts | 163° |
| 2026-05-04 18:00 | 14.00659 | 74.36981 | 20879 ft | 414 kts | 152° |
| 2026-05-04 18:00 | 13.98280 | 74.38580 | 20870 ft | 414 kts | 144° |
| 2026-05-04 18:00 | 13.95954 | 74.40347 | 20386 ft | 413 kts | 143° |
| 2026-05-04 18:01 | 13.93658 | 74.42108 | 19927 ft | 408 kts | 143° |
| 2026-05-04 18:01 | 13.91400 | 74.43837 | 19464 ft | 402 kts | 143° |
| 2026-05-04 18:01 | 13.89166 | 74.45540 | 19011 ft | 396 kts | 143° |
| 2026-05-04 18:02 | 13.84783 | 74.48857 | 18104 ft | 386 kts | 143° |
| 2026-05-04 18:02 | 13.82629 | 74.50480 | 17592 ft | 381 kts | 143° |
| 2026-05-04 18:02 | 13.80500 | 74.52082 | 17087 ft | 377 kts | 143° |
| 2026-05-04 18:02 | 13.78414 | 74.53650 | 16597 ft | 374 kts | 143° |
| 2026-05-04 18:03 | 13.76321 | 74.55223 | 16108 ft | 371 kts | 143° |
| 2026-05-04 18:03 | 13.74246 | 74.56783 | 15624 ft | 368 kts | 143° |
| 2026-05-04 18:03 | 13.72185 | 74.58332 | 15146 ft | 365 kts | 143° |
| 2026-05-04 18:03 | 13.70134 | 74.59873 | 14683 ft | 363 kts | 143° |
| 2026-05-04 18:04 | 13.68096 | 74.61403 | 14221 ft | 362 kts | 143° |
| 2026-05-04 18:04 | 13.66073 | 74.62922 | 13771 ft | 360 kts | 143° |
| 2026-05-04 18:04 | 13.62036 | 74.65953 | 12773 ft | 357 kts | 143° |
| 2026-05-04 18:05 | 13.60057 | 74.67438 | 12283 ft | 355 kts | 143° |
| 2026-05-04 18:05 | 13.58066 | 74.68932 | 11795 ft | 353 kts | 143° |
| 2026-05-04 18:05 | 13.56091 | 74.70414 | 11319 ft | 350 kts | 144° |
| 2026-05-04 18:05 | 13.54128 | 74.71886 | 10847 ft | 348 kts | 144° |
| 2026-05-04 18:06 | 13.50237 | 74.74803 | 9923 ft | 344 kts | 144° |
| 2026-05-04 18:06 | 13.48309 | 74.76248 | 9436 ft | 342 kts | 144° |
| 2026-05-04 18:06 | 13.46390 | 74.77685 | 8936 ft | 338 kts | 144° |
| 2026-05-04 18:07 | 13.44523 | 74.79084 | 8434 ft | 327 kts | 144° |
| 2026-05-04 18:07 | 13.42710 | 74.80441 | 7947 ft | 318 kts | 143° |
| 2026-05-04 18:07 | 13.40945 | 74.81762 | 7466 ft | 310 kts | 143° |
| 2026-05-04 18:07 | 13.39223 | 74.83051 | 6999 ft | 304 kts | 143° |
| 2026-05-04 18:08 | 13.37551 | 74.84303 | 6531 ft | 298 kts | 143° |
| 2026-05-04 18:08 | 13.35886 | 74.85549 | 6064 ft | 293 kts | 143° |
| 2026-05-04 18:08 | 13.34247 | 74.86776 | 5592 ft | 289 kts | 143° |
| 2026-05-04 18:08 | 13.32628 | 74.87988 | 5154 ft | 285 kts | 144° |
| 2026-05-04 18:09 | 13.29596 | 74.90257 | 4975 ft | 257 kts | 144° |
| 2026-05-04 18:09 | 13.26844 | 74.92316 | 4976 ft | 229 kts | 144° |
| 2026-05-04 18:10 | 13.25572 | 74.93266 | 4993 ft | 224 kts | 144° |
| 2026-05-04 18:10 | 13.24322 | 74.94201 | 5001 ft | 226 kts | 144° |
| 2026-05-04 18:10 | 13.23046 | 74.95155 | 4991 ft | 227 kts | 144° |
| 2026-05-04 18:10 | 13.21765 | 74.96112 | 4983 ft | 228 kts | 144° |
| 2026-05-04 18:11 | 13.20482 | 74.97071 | 4981 ft | 227 kts | 144° |
| 2026-05-04 18:11 | 13.19202 | 74.98027 | 4977 ft | 227 kts | 144° |
| 2026-05-04 18:11 | 13.17923 | 74.98982 | 4833 ft | 228 kts | 144° |
| 2026-05-04 18:11 | 13.16659 | 74.99928 | 4583 ft | 220 kts | 144° |
| 2026-05-04 18:12 | 13.15452 | 75.00830 | 4313 ft | 209 kts | 144° |
| 2026-05-04 18:12 | 13.14320 | 75.01676 | 4060 ft | 200 kts | 145° |
| 2026-05-04 18:12 | 13.13215 | 75.02501 | 3805 ft | 193 kts | 145° |
| 2026-05-04 18:12 | 13.12148 | 75.03297 | 3557 ft | 186 kts | 145° |
| 2026-05-04 18:13 | 13.11116 | 75.04067 | 3307 ft | 181 kts | 145° |
| 2026-05-04 18:13 | 13.10104 | 75.04822 | 3063 ft | 181 kts | 145° |
| 2026-05-04 18:13 | 13.07885 | 75.06154 | 2595 ft | 190 kts | 179° |
| 2026-05-04 18:14 | 13.06710 | 75.05714 | 2462 ft | 182 kts | 225° |
| 2026-05-04 18:14 | 13.05795 | 75.04830 | 2440 ft | 179 kts | 223° |
| 2026-05-04 18:14 | 13.04932 | 75.03932 | 2395 ft | 174 kts | 233° |
| 2026-05-04 18:15 | 13.03459 | 75.01947 | 2381 ft | 175 kts | 238° |
| 2026-05-04 18:15 | 13.02173 | 74.99853 | 2400 ft | 176 kts | 240° |
| 2026-05-04 18:15 | 13.01528 | 74.98778 | 2298 ft | 178 kts | 240° |
| 2026-05-04 18:16 | 13.00876 | 74.97693 | 2084 ft | 177 kts | 240° |
| 2026-05-04 18:16 | 13.00235 | 74.96625 | 1854 ft | 174 kts | 240° |
| 2026-05-04 18:16 | 12.99610 | 74.95584 | 1627 ft | 166 kts | 240° |
| 2026-05-04 18:17 | 12.98465 | 74.93676 | 1262 ft | 146 kts | 241° |
| 2026-05-04 18:17 | 12.97946 | 74.92811 | 1081 ft | 138 kts | 240° |
| 2026-05-04 18:17 | 12.96919 | 74.91108 | 696 ft | 144 kts | 238° |
| 2026-05-04 18:18 | 12.96407 | 74.90237 | 479 ft | 140 kts | 239° |
| 2026-05-04 18:18 | 12.95911 | 74.89413 | 323 ft | 130 kts | 239° |
| 2026-05-04 18:18 | 12.95530 | 74.88782 | 315 ft | 65 kts | 238° |
| 2026-05-04 18:18 | 12.95299 | 74.88403 | 317 ft | 62 kts | 237° |
| 2026-05-04 18:19 | 12.94899 | 74.87750 | 315 ft | 36 kts | 240° |
| 2026-05-04 18:19 | 12.94938 | 74.87623 | 317 ft | 16 kts | 330° |
| 2026-05-04 18:19 | 12.94997 | 74.87587 | 317 ft | 9 kts | 328° |
| 2026-05-04 18:20 | 12.95032 | 74.87533 | 315 ft | 6 kts | 259° |
| 2026-05-04 18:20 | 12.95000 | 74.87489 | 317 ft | 11 kts | 233° |
| 2026-05-04 18:20 | 12.94953 | 74.87418 | 317 ft | 13 kts | 241° |
| 2026-05-04 18:20 | 12.94908 | 74.87338 | 317 ft | 13 kts | 239° |
| 2026-05-04 18:21 | 12.94862 | 74.87262 | 316 ft | 12 kts | 239° |
| 2026-05-04 18:21 | 12.94857 | 74.87214 | 317 ft | 8 kts | 287° |
| 2026-05-04 18:21 | 12.94878 | 74.87151 | 315 ft | 10 kts | 288° |
| 2026-05-04 18:21 | 12.94883 | 74.87135 | 317 ft | 0 kts | 288° |
| 2026-05-04 18:22 | 12.94892 | 74.87107 | 316 ft | 9 kts | 290° |
| 2026-05-04 18:22 | 12.94919 | 74.87076 | 317 ft | 1 kts | 347° |
| 2026-05-04 18:22 | 12.94951 | 74.87087 | 317 ft | 0 kts | 22° |